createdAt,value
2023-05-03T00:01:25.171Z,12.27
2023-05-03T00:03:55.137Z,11.20
2023-05-03T00:06:22.432Z,10.75
2023-05-03T00:08:49.619Z,10.85
2023-05-03T00:11:16.699Z,10.93
2023-05-03T00:13:43.540Z,12.27
2023-05-03T00:16:10.333Z,13.15
2023-05-03T00:18:37.310Z,12.80
2023-05-03T00:21:04.305Z,10.57
2023-05-03T00:23:31.401Z,12.98
2023-05-03T00:25:59.192Z,13.73
2023-05-03T00:28:26.874Z,12.73
2023-05-03T00:30:54.217Z,15.95
2023-05-03T00:33:21.089Z,11.82
2023-05-03T00:35:48.676Z,13.45
2023-05-03T00:38:15.558Z,12.48
2023-05-03T00:40:43.125Z,13.30
2023-05-03T00:43:13.080Z,13.13
2023-05-03T00:45:40.202Z,15.10
2023-05-03T00:48:07.165Z,12.68
2023-05-03T00:50:35.697Z,13.30
2023-05-03T00:53:05.307Z,17.00
2023-05-03T00:55:33.446Z,13.65
2023-05-03T00:58:00.641Z,17.00
2023-05-03T01:00:27.484Z,14.93
2023-05-03T01:02:54.520Z,13.60
2023-05-03T01:05:22.862Z,12.77
2023-05-03T01:08:08.745Z,17.15
2023-05-03T01:10:48.533Z,12.85
2023-05-03T01:13:35.298Z,12.82
2023-05-03T01:16:30.282Z,14.65
2023-05-03T01:19:01.619Z,15.73
2023-05-03T01:21:31.022Z,14.77
2023-05-03T01:24:07.687Z,14.77
2023-05-03T01:26:34.531Z,16.27
2023-05-03T01:29:01.511Z,15.98
2023-05-03T01:31:55.603Z,14.25
2023-05-03T01:34:44.000Z,16.85
2023-05-03T01:37:13.129Z,12.65
2023-05-03T01:40:10.241Z,14.18
2023-05-03T01:42:39.251Z,18.65
2023-05-03T01:45:07.056Z,14.73
2023-05-03T01:47:34.066Z,16.17
2023-05-03T01:50:01.197Z,14.45
2023-05-03T01:52:28.260Z,18.30
2023-05-03T01:54:55.172Z,16.20
2023-05-03T01:57:22.132Z,15.65
2023-05-03T01:59:48.996Z,18.05
2023-05-03T02:02:15.880Z,15.75
2023-05-03T02:04:43.733Z,18.73
2023-05-03T02:07:10.716Z,21.48
2023-05-03T02:09:37.711Z,20.20
2023-05-03T02:12:04.740Z,15.82
2023-05-03T02:14:33.186Z,14.70
2023-05-03T02:17:00.686Z,17.00
2023-05-03T02:19:27.600Z,18.50
2023-05-03T02:21:54.492Z,16.75
2023-05-03T02:24:23.812Z,19.30
2023-05-03T02:26:50.982Z,15.20
2023-05-03T02:29:17.793Z,16.13
2023-05-03T02:31:45.880Z,19.55
2023-05-03T02:34:13.513Z,18.90
2023-05-03T02:36:40.463Z,18.25
2023-05-03T02:39:07.289Z,17.65
2023-05-03T02:41:34.075Z,16.65
2023-05-03T02:44:02.218Z,18.20
2023-05-03T02:46:29.619Z,19.42
2023-05-03T02:48:56.550Z,18.95
2023-05-03T02:51:23.808Z,16.48
2023-05-03T02:53:50.829Z,17.60
2023-05-03T02:56:18.007Z,16.58
2023-05-03T02:58:45.056Z,18.73
2023-05-03T03:01:12.004Z,18.38
2023-05-03T03:03:39.127Z,18.40
2023-05-03T03:06:06.118Z,18.38
2023-05-03T03:08:36.845Z,19.63
2023-05-03T03:11:05.569Z,16.05
2023-05-03T03:13:33.182Z,22.25
2023-05-03T03:16:01.114Z,19.00
2023-05-03T03:18:27.973Z,16.65
2023-05-03T03:20:54.737Z,19.50
2023-05-03T03:23:22.490Z,18.75
2023-05-03T03:25:49.259Z,18.42
2023-05-03T03:28:16.627Z,17.45
2023-05-03T03:30:45.091Z,20.02
2023-05-03T03:33:24.296Z,20.52
2023-05-03T03:35:53.675Z,18.70
2023-05-03T03:38:24.827Z,21.98
2023-05-03T03:40:58.593Z,17.85
2023-05-03T03:43:26.256Z,21.10
2023-05-03T03:45:54.139Z,21.13
2023-05-03T03:48:21.027Z,22.15
2023-05-03T03:50:49.486Z,20.90
2023-05-03T03:53:17.518Z,22.50
2023-05-03T03:55:44.394Z,21.42
2023-05-03T03:58:11.270Z,21.48
2023-05-03T04:00:38.636Z,20.02
2023-05-03T04:03:12.138Z,22.02
2023-05-03T04:05:39.245Z,22.52
2023-05-03T04:08:06.361Z,22.58
2023-05-03T04:10:35.260Z,21.10
2023-05-03T04:13:02.422Z,24.25
2023-05-03T04:15:29.565Z,23.08
2023-05-03T04:17:59.174Z,26.05
2023-05-03T04:20:26.436Z,26.38
2023-05-03T04:22:54.389Z,29.60
2023-05-03T04:25:25.704Z,24.08
2023-05-03T04:27:58.937Z,27.23
2023-05-03T04:30:27.266Z,30.10
2023-05-03T04:32:58.569Z,32.95
2023-05-03T04:35:28.748Z,26.25
2023-05-03T04:37:57.947Z,27.05
2023-05-03T04:40:26.806Z,25.35
2023-05-03T04:43:01.453Z,24.02
2023-05-03T04:45:31.373Z,24.58
2023-05-03T04:48:00.297Z,24.80
2023-05-03T04:50:27.178Z,24.42
2023-05-03T04:52:54.484Z,22.85
2023-05-03T04:55:23.598Z,22.15
2023-05-03T04:57:51.420Z,19.30
2023-05-03T05:00:19.010Z,21.80
2023-05-03T05:02:52.672Z,22.88
2023-05-03T05:05:20.636Z,22.38
2023-05-03T05:07:48.143Z,22.80
2023-05-03T05:10:16.990Z,21.50
2023-05-03T05:12:44.466Z,21.98
2023-05-03T05:15:11.697Z,24.02
2023-05-03T05:17:39.425Z,24.10
2023-05-03T05:20:12.367Z,26.15
2023-05-03T05:22:43.459Z,25.33
2023-05-03T05:25:10.885Z,22.92
2023-05-03T05:27:40.105Z,26.70
2023-05-03T05:30:08.491Z,23.98
2023-05-03T05:32:37.053Z,25.58
2023-05-03T05:35:05.633Z,25.40
2023-05-03T05:37:32.791Z,23.90
2023-05-03T05:40:04.438Z,26.52
2023-05-03T05:42:37.833Z,25.42
2023-05-03T05:45:07.863Z,23.73
2023-05-03T05:47:35.482Z,24.20
2023-05-03T05:50:09.713Z,21.05
2023-05-03T05:52:42.854Z,21.33
2023-05-03T05:55:14.703Z,20.20
2023-05-03T05:57:43.255Z,27.63
2023-05-03T06:00:15.031Z,21.27
2023-05-03T06:02:44.801Z,20.52
2023-05-03T06:05:16.467Z,21.83
2023-05-03T06:07:43.902Z,23.77
2023-05-03T06:10:11.255Z,23.00
2023-05-03T06:12:39.931Z,21.15
2023-05-03T06:15:13.142Z,24.35
2023-05-03T06:17:40.078Z,23.80
2023-05-03T06:20:11.850Z,21.77
2023-05-03T06:22:39.876Z,21.42
2023-05-03T06:25:10.486Z,21.27
2023-05-03T06:27:38.715Z,22.42
2023-05-03T06:30:07.303Z,29.23
2023-05-03T06:32:34.703Z,23.35
2023-05-03T06:35:02.797Z,23.83
2023-05-03T06:37:30.076Z,22.23
2023-05-03T06:39:57.281Z,20.38
2023-05-03T06:42:24.159Z,21.60
2023-05-03T06:45:03.797Z,20.52
2023-05-03T06:47:30.782Z,19.65
2023-05-03T06:49:58.270Z,21.00
2023-05-03T06:52:25.053Z,19.33
2023-05-03T06:54:52.934Z,20.23
2023-05-03T06:57:19.726Z,22.15
2023-05-03T06:59:46.525Z,22.15
2023-05-03T07:02:13.717Z,17.77
2023-05-03T07:04:40.786Z,18.95
2023-05-03T07:07:07.691Z,20.85
2023-05-03T07:09:42.814Z,18.05
2023-05-03T07:12:11.031Z,21.90
2023-05-03T07:14:39.625Z,20.85
2023-05-03T07:17:06.503Z,18.63
2023-05-03T07:19:33.299Z,20.15
2023-05-03T07:22:00.344Z,20.73
2023-05-03T07:24:27.148Z,17.88
2023-05-03T07:26:54.618Z,18.92
2023-05-03T07:29:21.702Z,18.17
2023-05-03T07:31:49.556Z,16.67
2023-05-03T07:34:17.762Z,19.55
2023-05-03T07:36:44.700Z,17.30
2023-05-03T07:39:11.816Z,19.30
2023-05-03T07:41:39.150Z,17.08
2023-05-03T07:44:05.907Z,15.75
2023-05-03T07:46:35.055Z,19.30
2023-05-03T07:49:04.116Z,17.20
2023-05-03T07:51:36.956Z,17.42
2023-05-03T07:54:04.355Z,16.98
2023-05-03T07:56:31.701Z,16.35
2023-05-03T07:59:08.553Z,15.95
2023-05-03T08:01:36.890Z,17.63
2023-05-03T08:04:04.685Z,17.90
2023-05-03T08:06:32.836Z,17.83
2023-05-03T08:08:59.696Z,16.23
2023-05-03T08:11:29.142Z,16.80
2023-05-03T08:13:58.835Z,19.02
2023-05-03T08:16:26.103Z,17.00
2023-05-03T08:18:53.049Z,16.00
2023-05-03T08:21:20.280Z,16.70
2023-05-03T08:23:47.057Z,17.15
2023-05-03T08:26:14.698Z,14.45
2023-05-03T08:28:42.635Z,15.32
2023-05-03T08:31:09.862Z,13.32
2023-05-03T08:33:37.139Z,16.13
2023-05-03T08:36:04.371Z,13.18
2023-05-03T08:38:31.599Z,12.48
2023-05-03T08:41:01.931Z,12.65
2023-05-03T08:43:29.881Z,10.40
2023-05-03T08:45:56.909Z,11.05
2023-05-03T08:48:24.230Z,12.35
2023-05-03T08:50:53.830Z,9.82
2023-05-03T08:53:20.986Z,11.55
2023-05-03T08:55:47.855Z,13.05
2023-05-03T08:58:14.748Z,15.45
2023-05-03T09:00:45.229Z,12.98
2023-05-03T09:03:13.016Z,12.27
2023-05-03T09:05:41.425Z,11.57
2023-05-03T09:08:10.491Z,14.75
2023-05-03T09:10:39.841Z,14.13
2023-05-03T09:13:07.816Z,13.65
2023-05-03T09:15:35.434Z,14.57
2023-05-03T09:18:15.609Z,15.43
2023-05-03T09:20:51.124Z,12.20
2023-05-03T09:23:20.800Z,13.90
2023-05-03T09:25:56.274Z,12.68
2023-05-03T09:28:23.383Z,13.30
2023-05-03T09:31:03.792Z,12.43
2023-05-03T09:33:30.752Z,11.43
2023-05-03T09:35:58.564Z,10.73
2023-05-03T09:38:33.680Z,9.27
2023-05-03T09:41:02.342Z,11.88
2023-05-03T09:43:29.357Z,10.88
2023-05-03T09:46:12.981Z,9.93
2023-05-03T09:48:40.581Z,9.45
2023-05-03T09:51:08.560Z,12.55
2023-05-03T09:53:39.292Z,11.40
2023-05-03T09:56:12.643Z,11.43
2023-05-03T09:58:40.958Z,10.20
2023-05-03T10:01:14.616Z,11.43
2023-05-03T10:03:47.586Z,10.32
2023-05-03T10:06:31.177Z,8.98
2023-05-03T10:09:06.409Z,11.20
2023-05-03T10:11:38.908Z,9.23
2023-05-03T10:14:07.457Z,10.20
2023-05-03T10:16:38.644Z,10.00
2023-05-03T10:19:27.960Z,9.70
2023-05-03T10:21:59.396Z,10.05
2023-05-03T10:24:26.378Z,8.75
2023-05-03T10:26:57.538Z,9.73
2023-05-03T10:29:51.900Z,8.10
2023-05-03T10:32:30.769Z,9.43
2023-05-03T10:35:10.526Z,8.73
2023-05-03T10:37:40.140Z,9.32
2023-05-03T10:40:14.005Z,8.75
2023-05-03T10:42:46.266Z,12.43
2023-05-03T10:45:31.654Z,9.15
2023-05-03T10:48:19.056Z,13.70
2023-05-03T10:50:46.548Z,8.65
2023-05-03T10:53:36.674Z,11.10
2023-05-03T10:56:11.896Z,9.85
2023-05-03T10:58:43.617Z,8.75
2023-05-03T11:01:13.189Z,10.75
2023-05-03T11:04:21.625Z,7.90
2023-05-03T11:06:52.040Z,8.27
2023-05-03T11:09:19.158Z,10.45
2023-05-03T11:11:46.544Z,8.05
2023-05-03T11:14:13.920Z,8.27
2023-05-03T11:16:48.042Z,7.53
2023-05-03T11:19:16.097Z,7.57
2023-05-03T11:21:45.271Z,8.38
2023-05-03T11:24:15.848Z,9.20
2023-05-03T11:26:42.606Z,7.53
2023-05-03T11:29:13.907Z,7.78
2023-05-03T11:31:43.319Z,7.47
2023-05-03T11:34:12.064Z,9.02
2023-05-03T11:36:40.707Z,6.05
2023-05-03T11:39:08.197Z,6.70
2023-05-03T11:41:35.984Z,6.47
2023-05-03T11:44:15.247Z,7.15
2023-05-03T11:46:44.365Z,6.72
2023-05-03T11:49:17.092Z,5.88
2023-05-03T11:51:46.679Z,6.57
2023-05-03T11:56:47.665Z,6.30
2023-05-03T11:59:14.652Z,6.05
2023-05-03T12:01:43.091Z,5.70
2023-05-03T12:04:12.376Z,6.22
2023-05-03T12:06:40.968Z,7.68
2023-05-03T12:09:15.995Z,6.53
2023-05-03T12:11:45.247Z,5.78
2023-05-03T12:14:16.000Z,7.75
2023-05-03T12:16:52.179Z,6.15
2023-05-03T12:19:33.348Z,5.82
2023-05-03T12:22:18.141Z,6.40
2023-05-03T12:24:49.834Z,5.13
2023-05-03T12:27:19.022Z,6.32
2023-05-03T12:29:47.658Z,5.57
2023-05-03T12:32:15.593Z,5.97
2023-05-03T12:34:42.862Z,5.82
2023-05-03T12:37:11.668Z,7.68
2023-05-03T12:39:40.440Z,4.40
2023-05-03T12:42:09.271Z,5.25
2023-05-03T12:44:43.482Z,6.47
2023-05-03T12:47:12.265Z,9.70
2023-05-03T12:49:46.521Z,7.63
2023-05-03T12:52:36.247Z,6.82
2023-05-03T12:55:03.683Z,6.15
2023-05-03T12:57:36.717Z,6.57
2023-05-03T13:00:13.653Z,7.10
2023-05-03T13:03:20.507Z,7.18
2023-05-03T13:05:35.148Z,6.03
2023-05-03T13:08:09.221Z,8.02
2023-05-03T13:10:41.185Z,7.25
2023-05-03T13:13:09.265Z,6.30
2023-05-03T13:15:37.535Z,6.10
2023-05-03T13:18:08.169Z,6.82
2023-05-03T13:20:36.997Z,7.70
2023-05-03T13:23:04.825Z,5.07
2023-05-03T13:25:32.092Z,5.80
2023-05-03T13:28:03.989Z,6.75
2023-05-03T13:30:30.828Z,6.75
2023-05-03T13:32:57.707Z,5.05
2023-05-03T13:35:24.758Z,5.43
2023-05-03T13:37:52.952Z,4.97
2023-05-03T13:40:24.561Z,5.35
2023-05-03T13:42:51.653Z,5.50
2023-05-03T13:45:19.085Z,5.47
2023-05-03T13:50:15.990Z,6.05
2023-05-03T13:52:44.737Z,5.75
2023-05-03T13:55:11.649Z,4.30
2023-05-03T13:57:38.436Z,5.20
2023-05-03T14:00:07.206Z,4.35
2023-05-03T14:02:34.688Z,5.55
2023-05-03T14:05:02.338Z,6.38
2023-05-03T14:07:29.242Z,4.70
2023-05-03T14:09:57.663Z,4.25
2023-05-03T14:12:28.038Z,3.90
2023-05-03T14:14:55.148Z,4.35
2023-05-03T14:17:22.371Z,3.22
2023-05-03T14:19:49.462Z,3.55
2023-05-03T14:22:16.226Z,4.28
2023-05-03T14:24:44.279Z,4.07
2023-05-03T14:27:11.407Z,4.45
2023-05-03T14:29:38.324Z,3.90
2023-05-03T14:32:05.703Z,4.32
2023-05-03T14:34:32.810Z,5.05
2023-05-03T14:37:00.147Z,4.68
2023-05-03T14:39:27.364Z,5.50
2023-05-03T14:41:56.277Z,6.70
2023-05-03T14:44:23.582Z,3.70
2023-05-03T14:46:51.153Z,4.47
2023-05-03T14:49:18.066Z,3.63
2023-05-03T14:51:45.578Z,3.85
2023-05-03T14:54:13.095Z,4.47
2023-05-03T14:56:43.024Z,4.15
2023-05-03T14:59:09.926Z,3.78
2023-05-03T15:01:37.939Z,4.63
2023-05-03T15:04:07.552Z,4.13
2023-05-03T15:06:38.937Z,4.00
2023-05-03T15:09:06.128Z,4.03
2023-05-03T15:11:36.121Z,4.35
2023-05-03T15:14:06.184Z,3.83
2023-05-03T15:16:35.333Z,4.00
2023-05-03T15:19:03.564Z,2.97
2023-05-03T15:21:35.746Z,3.22
2023-05-03T15:24:05.748Z,3.47
2023-05-03T15:26:36.604Z,4.05
2023-05-03T15:29:03.450Z,3.20
2023-05-03T15:31:30.394Z,3.25
2023-05-03T15:33:57.639Z,4.78
2023-05-03T15:36:31.766Z,3.72
2023-05-03T15:38:58.950Z,4.82
2023-05-03T15:41:28.839Z,4.35
2023-05-03T15:43:56.181Z,8.00
2023-05-03T15:46:23.113Z,4.80
2023-05-03T15:48:49.928Z,4.75
2023-05-03T15:51:16.847Z,4.03
2023-05-03T15:53:43.730Z,5.40
2023-05-03T15:56:12.993Z,4.05
2023-05-03T15:58:39.759Z,3.47
2023-05-03T16:01:06.622Z,4.45
2023-05-03T16:03:33.430Z,3.67
2023-05-03T16:06:00.630Z,6.05
2023-05-03T16:08:29.018Z,3.60
2023-05-03T16:10:55.859Z,4.93
2023-05-03T16:13:22.707Z,5.00
2023-05-03T16:15:52.927Z,3.75
2023-05-03T16:18:19.776Z,3.67
2023-05-03T16:20:46.747Z,3.25
2023-05-03T16:23:13.714Z,4.70
2023-05-03T16:25:40.706Z,2.90
2023-05-03T16:28:07.645Z,2.78
2023-05-03T16:30:34.973Z,4.95
2023-05-03T16:33:04.946Z,3.97
2023-05-03T16:35:31.866Z,3.50
2023-05-03T16:37:58.970Z,5.55
2023-05-03T16:40:31.012Z,3.55
2023-05-03T16:43:01.141Z,3.55
2023-05-03T16:45:28.391Z,5.15
2023-05-03T16:47:56.093Z,3.50
2023-05-03T16:50:23.454Z,3.47
2023-05-03T16:52:50.667Z,4.47
2023-05-03T16:55:22.723Z,3.97
2023-05-03T16:57:49.679Z,2.85
2023-05-03T17:00:17.250Z,4.40
2023-05-03T17:02:45.050Z,3.72
2023-05-03T17:05:13.002Z,6.35
2023-05-03T17:07:53.529Z,4.85
2023-05-03T17:10:20.489Z,3.58
2023-05-03T17:12:50.906Z,3.10
2023-05-03T17:15:17.915Z,3.55
2023-05-03T17:17:47.599Z,3.92
2023-05-03T17:20:14.612Z,4.15
2023-05-03T17:22:41.452Z,4.50
2023-05-03T17:25:09.765Z,4.57
2023-05-03T17:27:39.744Z,8.85
2023-05-03T17:30:07.332Z,5.80
2023-05-03T17:32:34.478Z,5.43
2023-05-03T17:35:01.285Z,8.32
2023-05-03T17:37:28.598Z,6.57
2023-05-03T17:39:55.495Z,4.55
2023-05-03T17:42:22.514Z,5.15
2023-05-03T17:44:51.978Z,5.30
2023-05-03T17:47:18.847Z,4.20
2023-05-03T17:49:45.567Z,5.32
2023-05-03T17:52:12.336Z,5.13
2023-05-03T17:54:40.590Z,5.43
2023-05-03T17:57:07.345Z,4.85
2023-05-03T17:59:34.109Z,3.90
2023-05-03T18:02:02.481Z,6.57
2023-05-03T18:04:30.326Z,5.13
2023-05-03T18:06:57.833Z,5.45
2023-05-03T18:09:26.762Z,4.43
2023-05-03T18:11:56.463Z,4.55
2023-05-03T18:14:23.538Z,4.45
2023-05-03T18:16:51.901Z,4.65
2023-05-03T18:19:21.327Z,6.00
2023-05-03T18:21:48.197Z,3.80
2023-05-03T18:24:16.036Z,5.40
2023-05-03T18:26:42.952Z,5.13
2023-05-03T18:29:10.032Z,3.92
2023-05-03T18:31:37.521Z,3.80
2023-05-03T18:34:04.766Z,5.22
2023-05-03T18:36:32.169Z,4.28
2023-05-03T18:38:59.223Z,4.93
2023-05-03T18:41:26.263Z,4.32
2023-05-03T18:43:54.516Z,5.05
2023-05-03T18:46:21.682Z,5.65
2023-05-03T18:48:49.046Z,5.13
2023-05-03T18:51:18.664Z,4.28
2023-05-03T18:53:48.904Z,6.50
2023-05-03T18:56:15.806Z,4.97
2023-05-03T18:58:42.937Z,5.30
2023-05-03T19:01:09.845Z,4.63
2023-05-03T19:03:36.847Z,4.82
2023-05-03T19:06:05.656Z,4.85
2023-05-03T19:08:33.391Z,4.45
2023-05-03T19:11:08.518Z,6.45
2023-05-03T19:13:36.078Z,5.22
2023-05-03T19:16:03.742Z,4.45
2023-05-03T19:18:31.652Z,5.93
2023-05-03T19:20:58.802Z,6.30
2023-05-03T19:23:25.982Z,6.05
2023-05-03T19:25:53.430Z,7.70
2023-05-03T19:28:20.598Z,5.55
2023-05-03T19:30:51.683Z,5.65
2023-05-03T19:33:20.329Z,5.15
2023-05-03T19:35:47.798Z,5.75
2023-05-03T19:38:14.684Z,4.82
2023-05-03T19:40:41.559Z,5.40
2023-05-03T19:43:09.662Z,7.10
2023-05-03T19:45:42.265Z,8.07
2023-05-03T19:48:10.352Z,7.00
2023-05-03T19:50:37.458Z,5.43
2023-05-03T19:53:04.443Z,4.97
2023-05-03T19:55:31.331Z,4.43
2023-05-03T19:57:58.070Z,4.93
2023-05-03T20:00:26.781Z,4.18
2023-05-03T20:02:56.761Z,5.00
2023-05-03T20:05:23.829Z,5.53
2023-05-03T20:07:53.135Z,6.75
2023-05-03T20:10:19.918Z,6.78
2023-05-03T20:12:47.390Z,6.35
2023-05-03T20:15:14.997Z,4.97
2023-05-03T20:17:48.658Z,4.78
2023-05-03T20:20:18.209Z,4.95
2023-05-03T20:22:46.364Z,5.20
2023-05-03T20:25:13.154Z,5.18
2023-05-03T20:27:40.229Z,5.22
2023-05-03T20:30:09.154Z,5.85
2023-05-03T20:32:39.909Z,5.57
2023-05-03T20:35:08.337Z,6.85
2023-05-03T20:37:36.430Z,8.23
2023-05-03T20:40:06.555Z,6.82
2023-05-03T20:42:35.614Z,6.00
2023-05-03T20:45:02.662Z,5.88
2023-05-03T20:47:29.902Z,6.15
2023-05-03T20:49:56.682Z,5.50
2023-05-03T20:52:25.791Z,5.20
2023-05-03T20:54:53.392Z,5.28
2023-05-03T20:57:21.629Z,6.13
2023-05-03T20:59:48.752Z,5.30
2023-05-03T21:02:15.597Z,4.80
2023-05-03T21:04:46.985Z,5.25
2023-05-03T21:07:13.983Z,5.85
2023-05-03T21:09:43.011Z,5.57
2023-05-03T21:12:13.197Z,6.07
2023-05-03T21:14:40.122Z,5.10
2023-05-03T21:17:08.920Z,6.35
2023-05-03T21:19:36.346Z,8.98
2023-05-03T21:22:03.648Z,5.00
2023-05-03T21:24:32.790Z,7.45
2023-05-03T21:26:59.573Z,5.15
2023-05-03T21:29:26.427Z,5.57
2023-05-03T21:31:54.451Z,5.20
2023-05-03T21:34:24.320Z,6.65
2023-05-03T21:36:53.353Z,5.88
2023-05-03T21:39:21.410Z,5.05
2023-05-03T21:41:48.863Z,6.55
2023-05-03T21:44:15.838Z,6.10
2023-05-03T21:46:45.947Z,5.35
2023-05-03T21:49:12.870Z,5.68
2023-05-03T21:51:39.987Z,6.70
2023-05-03T21:54:06.988Z,4.90
2023-05-03T21:56:33.852Z,5.72
2023-05-03T21:59:00.950Z,5.18
2023-05-03T22:01:28.796Z,5.53
2023-05-03T22:03:55.964Z,5.57
2023-05-03T22:06:22.956Z,6.28
2023-05-03T22:08:49.790Z,5.57
2023-05-03T22:11:16.649Z,5.43
2023-05-03T22:13:58.700Z,5.40
2023-05-03T22:16:30.526Z,6.32
2023-05-03T22:18:58.419Z,6.40
2023-05-03T22:21:25.493Z,7.70
2023-05-03T22:23:52.693Z,7.22
2023-05-03T22:26:19.542Z,5.68
2023-05-03T22:28:49.468Z,6.07
2023-05-03T22:31:16.259Z,5.50
2023-05-03T22:33:45.019Z,6.88
2023-05-03T22:36:16.437Z,7.53
2023-05-03T22:38:49.365Z,5.95
2023-05-03T22:41:16.419Z,7.13
2023-05-03T22:43:43.345Z,7.18
2023-05-03T22:46:10.467Z,6.75
2023-05-03T22:48:37.254Z,9.25
2023-05-03T22:51:04.363Z,6.53
2023-05-03T22:53:31.318Z,6.30
2023-05-03T22:56:04.786Z,7.50
2023-05-03T22:58:32.064Z,6.35
2023-05-03T23:00:58.996Z,6.75
2023-05-03T23:03:27.233Z,6.78
2023-05-03T23:06:00.462Z,6.85
2023-05-03T23:08:29.888Z,7.75
2023-05-03T23:10:59.360Z,6.97
2023-05-03T23:13:27.344Z,8.13
2023-05-03T23:15:57.086Z,7.55
2023-05-03T23:18:23.987Z,8.75
2023-05-03T23:20:50.939Z,11.20
2023-05-03T23:23:17.696Z,7.90
2023-05-03T23:25:44.694Z,8.75
2023-05-03T23:28:12.605Z,10.20
2023-05-03T23:30:44.488Z,8.52
2023-05-03T23:33:12.222Z,8.30
2023-05-03T23:35:40.968Z,9.73
2023-05-03T23:38:07.947Z,8.43
2023-05-03T23:40:34.954Z,9.40
2023-05-03T23:43:01.967Z,10.38
2023-05-03T23:45:28.867Z,9.43
2023-05-03T23:47:55.981Z,9.93
2023-05-03T23:50:22.839Z,9.07
2023-05-03T23:52:49.733Z,9.20
2023-05-03T23:55:16.514Z,9.90
2023-05-03T23:57:43.498Z,8.50
